Time;durP1;ratioP1;P1;durP2;ratioP2;P2;SDS_P1;SDS_P2;PMS_P1;PMS_P2;Temp;Humidity;BMP_temperature;BMP_pressure;BME280_temperature;BME280_humidity;BME280_pressure;Samples;Min_cycle;Max_cycle;Signal;HPM_P1;HPM_P2
2023/06/12 00:04:34;;;;;;;15.70;14.10;;;;;;;27.39;40.95;100754.44;20991927;28;20071;-57
2023/06/12 00:14:36;;;;;;;16.92;15.13;;;;;;;27.39;41.09;100755.28;20992532;28;20040;-58
2023/06/12 00:24:37;;;;;;;16.08;14.50;;;;;;;27.40;40.89;100761.72;20991785;28;20094;-58
2023/06/12 00:34:39;;;;;;;16.50;14.73;;;;;;;27.41;41.03;100761.41;20991317;28;20101;-58
2023/06/12 00:44:40;;;;;;;15.52;13.98;;;;;;;27.42;40.80;100770.66;20996998;28;20391;-59
2023/06/12 00:54:46;;;;;;;15.30;13.80;;;;;;;27.30;41.01;100755.25;21005774;28;20200;-57
2023/06/12 01:04:49;;;;;;;15.65;14.10;;;;;;;27.45;41.02;100770.00;21005862;28;20102;-59
2023/06/12 01:14:51;;;;;;;15.65;14.05;;;;;;;27.46;41.19;100772.47;21004624;28;20048;-58
2023/06/12 01:24:58;;;;;;;15.70;14.00;;;;;;;27.46;41.04;100789.34;21003663;28;20051;-58
2023/06/12 01:35:02;;;;;;;;;;;;;;;27.48;41.21;100803.06;21003713;28;20037;-59
2023/06/12 01:45:04;;;;;;;16.25;14.68;;;;;;;27.52;41.00;100815.28;21002271;28;20279;-58
2023/06/12 01:55:06;;;;;;;15.93;14.32;;;;;;;27.50;41.11;100814.81;20999939;28;20472;-58
2023/06/12 02:05:07;;;;;;;16.38;14.77;;;;;;;27.50;41.11;100824.06;21001179;28;20389;-58
2023/06/12 02:15:13;;;;;;;16.55;14.80;;;;;;;27.47;41.03;100823.88;21000193;28;20043;-59
2023/06/12 02:25:14;;;;;;;17.02;15.15;;;;;;;27.51;40.88;100819.25;20999003;28;20044;-58
2023/06/12 02:35:16;;;;;;;17.33;15.55;;;;;;;27.42;41.02;100798.75;20998584;28;20492;-57
2023/06/12 02:45:17;;;;;;;17.15;15.20;;;;;;;27.53;41.08;100809.34;20997672;28;20094;-58
2023/06/12 02:55:18;;;;;;;15.75;14.23;;;;;;;27.54;40.85;100813.00;20996739;28;20040;-58
2023/06/12 03:05:20;;;;;;;16.55;14.85;;;;;;;27.52;41.25;100809.66;20995656;28;20414;-58
2023/06/12 03:15:22;;;;;;;15.15;13.63;;;;;;;27.30;41.13;100774.09;20995432;28;20102;-58
2023/06/12 03:25:23;;;;;;;14.45;13.05;;;;;;;27.57;41.08;100818.75;20994639;28;20063;-59
2023/06/12 03:35:24;;;;;;;15.50;13.98;;;;;;;27.59;40.72;100818.44;20993859;28;20032;-58
2023/06/12 03:45:26;;;;;;;15.60;13.80;;;;;;;27.50;40.87;100783.88;20993145;28;20036;-58
2023/06/12 03:55:28;;;;;;;15.73;14.15;;;;;;;27.60;40.84;100812.50;20993134;28;20039;-58
2023/06/12 04:05:30;;;;;;;14.63;13.20;;;;;;;27.60;40.75;100817.28;20992593;28;20044;-59
2023/06/12 04:15:36;;;;;;;15.23;13.65;;;;;;;27.60;40.93;100803.22;20991711;28;20044;-59
2023/06/12 04:25:38;;;;;;;15.03;13.53;;;;;;;27.49;40.70;100782.22;21008342;28;20145;-58
2023/06/12 04:35:40;;;;;;;14.65;13.07;;;;;;;27.63;40.61;100805.41;21008298;28;20040;-59
2023/06/12 04:45:44;;;;;;;14.98;13.43;;;;;;;27.64;40.84;100800.59;21007626;28;20045;-58
2023/06/12 04:55:50;;;;;;;16.17;13.23;;;;;;;27.61;40.49;100791.66;21005916;28;20071;-58
2023/06/12 05:05:52;;;;;;;15.07;13.52;;;;;;;27.64;40.61;100781.75;21005238;28;20041;-58
2023/06/12 05:15:56;;;;;;;14.88;13.23;;;;;;;27.62;40.73;100764.38;21004627;28;20434;-58
2023/06/12 05:25:57;;;;;;;13.85;12.48;;;;;;;27.66;40.86;100759.72;21004059;28;20049;-59
2023/06/12 05:35:59;;;;;;;14.27;12.88;;;;;;;27.66;40.75;100756.94;21002778;28;20028;-58
2023/06/12 05:46:00;;;;;;;14.50;13.07;;;;;;;27.67;40.49;100750.13;21001557;28;20045;-59
2023/06/12 05:56:01;;;;;;;14.25;12.85;;;;;;;27.55;40.37;100711.47;21001726;28;20055;-58
2023/06/12 06:06:06;;;;;;;13.82;12.35;;;;;;;27.68;40.62;100732.13;21001126;28;20106;-58
2023/06/12 06:16:07;;;;;;;14.30;12.80;;;;;;;27.69;40.42;100730.97;20999902;28;20094;-59
2023/06/12 06:26:09;;;;;;;14.88;13.38;;;;;;;27.69;40.42;100718.91;20999055;28;20040;-58
2023/06/12 06:36:11;;;;;;;13.93;12.20;;;;;;;27.70;40.65;100718.56;20998679;28;20044;-58
2023/06/12 06:46:12;;;;;;;14.80;13.25;;;;;;;27.66;40.60;100700.69;20996723;28;20049;-58
2023/06/12 06:56:16;;;;;;;13.68;12.35;;;;;;;27.70;40.40;100715.75;20996937;28;20066;-56
2023/06/12 07:06:17;;;;;;;14.80;13.30;;;;;;;27.73;40.42;100714.31;20995947;28;20391;-58
2023/06/12 07:16:19;;;;;;;13.90;12.43;;;;;;;27.72;40.27;100701.38;20995253;28;20384;-58
2023/06/12 07:26:21;;;;;;;14.15;12.68;;;;;;;27.72;40.23;100695.75;20993878;28;20079;-58
2023/06/12 07:36:23;;;;;;;13.73;12.30;;;;;;;27.62;40.24;100680.03;20994377;28;20032;-59
2023/06/12 07:46:24;;;;;;;14.77;13.10;;;;;;;27.68;40.33;100678.72;20993298;28;20049;-58
2023/06/12 07:56:25;;;;;;;14.32;12.75;;;;;;;27.72;40.35;100679.75;20992256;28;20102;-57
2023/06/12 08:06:27;;;;;;;14.50;13.00;;;;;;;27.73;40.28;100669.31;20992284;28;20032;-58
2023/06/12 08:16:28;;;;;;;13.48;12.05;;;;;;;27.75;40.29;100667.81;20992089;28;20024;-59
2023/06/12 08:26:29;;;;;;;14.63;13.20;;;;;;;27.75;40.35;100666.97;20991971;28;20382;-58
2023/06/12 08:36:32;;;;;;;13.88;12.48;;;;;;;27.75;40.27;100659.38;20990928;28;20041;-58
2023/06/12 08:46:33;;;;;;;14.30;12.77;;;;;;;27.76;40.31;100668.63;20990565;28;20083;-58
2023/06/12 08:56:36;;;;;;;14.52;13.10;;;;;;;27.67;40.31;100663.00;20990290;28;20052;-58
2023/06/12 09:06:38;;;;;;;14.85;13.35;;;;;;;27.75;40.47;100679.06;20997232;28;20045;-58
2023/06/12 09:16:45;;;;;;;14.13;12.63;;;;;;;27.75;40.25;100670.63;21004366;28;20040;-58
2023/06/12 09:26:50;;;;;;;14.55;13.05;;;;;;;27.76;40.41;100672.25;21004004;28;20041;-58
2023/06/12 09:36:55;;;;;;;14.38;12.90;;;;;;;27.77;40.58;100682.38;21003693;28;20044;-58
2023/06/12 09:47:04;;;;;;;14.63;13.13;;;;;;;27.73;40.39;100681.38;21002476;28;20496;-57
2023/06/12 09:57:07;;;;;;;14.98;13.40;;;;;;;27.76;40.47;100683.50;21001441;28;20450;-58
2023/06/12 10:07:24;;;;;;;14.73;13.23;;;;;;;27.76;40.40;100669.44;21001174;28;20549;-58
2023/06/12 10:17:27;;;;;;;14.27;12.80;;;;;;;27.77;40.33;100685.19;20999013;28;20032;-59
2023/06/12 10:27:30;;;;;;;15.32;13.75;;;;;;;27.77;40.76;100671.13;20998831;28;20377;-58
2023/06/12 10:37:46;;;;;;;15.57;14.02;;;;;;;27.75;40.57;100676.25;20998289;28;20545;-57
2023/06/12 10:48:02;;;;;;;15.57;13.90;;;;;;;27.75;40.61;100681.03;20996471;28;20074;-58
2023/06/12 10:58:12;;;;;;;15.93;13.27;;;;;;;27.77;40.82;100676.75;20996128;28;20553;-58
2023/06/12 11:08:15;;;;;;;15.63;13.95;;;;;;;27.77;40.82;100675.94;20994860;28;20045;-58
2023/06/12 11:18:20;;;;;;;15.05;13.45;;;;;;;27.77;40.77;100673.94;20994177;28;20443;-58
2023/06/12 11:28:25;;;;;;;15.32;13.75;;;;;;;27.65;40.85;100640.03;20996066;28;20411;-58
2023/06/12 11:38:27;;;;;;;15.32;13.73;;;;;;;27.76;40.84;100652.59;20993299;28;20193;-58
2023/06/12 11:48:31;;;;;;;15.40;13.77;;;;;;;27.78;40.85;100661.53;20992594;28;20036;-57
2023/06/12 11:58:45;;;;;;;16.02;14.27;;;;;;;27.79;40.94;100673.59;20992928;28;20032;-59
2023/06/12 12:08:55;;;;;;;14.70;13.20;;;;;;;27.77;40.77;100668.31;20991729;28;20458;-58
2023/06/12 12:18:56;;;;;;;15.50;13.75;;;;;;;27.79;41.08;100656.72;20991696;28;20376;-57
2023/06/12 12:28:58;;;;;;;16.45;14.80;;;;;;;27.78;41.13;100636.22;20991993;28;20044;-59
2023/06/12 12:38:59;;;;;;;15.30;13.73;;;;;;;27.81;41.15;100640.34;20995112;28;20044;-59
2023/06/12 12:49:01;;;;;;;15.88;14.27;;;;;;;27.77;41.05;100626.16;21007011;28;20424;-56
2023/06/12 12:59:02;;;;;;;15.77;14.18;;;;;;;27.81;41.00;100627.13;21006392;28;20399;-58
2023/06/12 13:09:04;;;;;;;16.48;14.68;;;;;;;27.80;41.08;100625.44;21005548;28;20036;-58
2023/06/12 13:19:05;;;;;;;15.68;14.07;;;;;;;27.78;41.01;100601.66;21004458;28;20102;-59
2023/06/12 13:29:07;;;;;;;16.70;14.90;;;;;;;27.78;41.45;100599.69;21003897;28;20446;-58
2023/06/12 13:39:08;;;;;;;17.67;14.50;;;;;;;27.82;41.18;100605.47;21002364;28;20041;-58
2023/06/12 13:49:10;;;;;;;16.85;15.05;;;;;;;27.81;41.06;100593.38;21001310;28;20052;-60
2023/06/12 13:59:12;;;;;;;16.75;14.80;;;;;;;27.84;41.41;100603.94;21001778;28;20033;-59
2023/06/12 14:09:14;;;;;;;16.15;14.35;;;;;;;27.85;41.39;100576.66;21000165;28;20484;-57
2023/06/12 14:19:18;;;;;;;15.32;13.70;;;;;;;27.86;41.20;100562.28;20999810;28;20430;-57
2023/06/12 14:29:20;;;;;;;16.05;14.35;;;;;;;27.86;41.40;100562.28;20998846;28;20036;-58
2023/06/12 14:39:21;;;;;;;16.20;14.20;;;;;;;27.89;41.24;100543.06;20996685;28;20110;-58
2023/06/12 14:49:22;;;;;;;15.93;14.32;;;;;;;27.83;41.12;100519.94;20996855;28;20070;-59
2023/06/12 14:59:25;;;;;;;16.88;14.65;;;;;;;27.87;40.97;100512.47;20969321;28;20459;-58
2023/06/12 15:09:26;;;;;;;17.17;14.68;;;;;;;27.83;41.43;100505.88;20949213;28;20052;-56
2023/06/12 15:19:27;;;;;;;19.92;15.40;;;;;;;27.93;41.34;100499.03;20994883;28;20029;-55
2023/06/12 15:29:29;;;;;;;20.05;15.48;;;;;;;27.93;41.35;100494.25;20994098;28;20432;-55
2023/06/12 15:39:30;;;;;;;18.65;15.75;;;;;;;27.96;41.35;100481.50;20992060;28;20079;-55
2023/06/12 15:49:32;;;;;;;19.67;16.05;;;;;;;27.97;41.31;100469.06;20992515;28;20053;-57
2023/06/12 15:59:33;;;;;;;21.67;16.23;;;;;;;27.99;41.33;100438.63;20992168;28;20074;-56
2023/06/12 16:09:39;;;;;;;18.88;15.93;;;;;;;27.98;41.58;100417.28;20991552;28;20052;-56
2023/06/12 16:19:41;;;;;;;19.33;16.13;;;;;;;28.00;41.27;100390.47;21004452;28;20075;-57
2023/06/12 16:29:42;;;;;;;22.92;15.98;;;;;;;28.01;41.32;100394.13;21007838;28;20125;-58
2023/06/12 16:39:44;;;;;;;19.17;16.00;;;;;;;28.01;41.59;100360.38;21006344;28;20391;-56
2023/06/12 16:49:45;;;;;;;17.70;15.75;;;;;;;28.03;41.57;100332.72;21006113;28;20132;-55
2023/06/12 16:59:47;;;;;;;17.17;15.38;;;;;;;28.03;41.36;100313.00;21006392;28;20484;-57
2023/06/12 17:09:48;;;;;;;17.80;15.90;;;;;;;28.03;41.65;100296.97;21004710;28;20049;-55
2023/06/12 17:19:50;;;;;;;17.13;15.32;;;;;;;28.03;41.55;100268.03;21003633;28;20029;-58
2023/06/12 17:29:51;;;;;;;17.40;15.50;;;;;;;28.05;41.70;100254.44;21002822;28;20045;-58
2023/06/12 17:39:53;;;;;;;22.95;16.23;;;;;;;28.07;41.50;100218.34;21004435;28;20094;-57
2023/06/12 17:49:54;;;;;;;16.33;14.63;;;;;;;28.05;41.45;100198.19;21003048;28;20040;-57
2023/06/12 17:59:56;;;;;;;17.35;15.02;;;;;;;28.07;41.67;100207.09;21002494;28;20395;-57
2023/06/12 18:09:57;;;;;;;16.42;14.65;;;;;;;28.09;41.40;100199.16;21000752;28;20380;-56
2023/06/12 18:19:58;;;;;;;18.33;15.45;;;;;;;28.09;41.43;100173.84;20999813;28;20044;-55
2023/06/12 18:30:00;;;;;;;16.33;14.63;;;;;;;28.10;41.74;100156.59;20999253;28;20032;-55
2023/06/12 18:40:02;;;;;;;17.65;14.75;;;;;;;28.07;41.61;100139.59;20996416;28;20395;-59
2023/06/12 18:50:04;;;;;;;17.10;15.25;;;;;;;28.11;41.41;100130.13;20996684;28;20045;-55
2023/06/12 19:00:06;;;;;;;16.52;14.30;;;;;;;28.11;41.54;100106.78;20996109;28;20107;-56
2023/06/12 19:10:11;;;;;;;16.13;13.63;;;;;;;28.08;41.74;100068.94;20992922;28;20453;-56
2023/06/12 19:20:12;;;;;;;15.05;13.55;;;;;;;28.12;41.64;100092.38;20994291;28;20049;-56
2023/06/12 19:30:14;;;;;;;15.18;13.63;;;;;;;28.13;41.54;100093.19;20994001;28;20494;-58
2023/06/12 19:40:15;;;;;;;15.85;13.98;;;;;;;28.09;41.73;100086.66;20991535;28;20036;-56
2023/06/12 19:50:18;;;;;;;17.15;13.48;;;;;;;28.13;41.80;100104.44;20991696;28;20033;-57
2023/06/12 20:00:24;;;;;;;14.63;12.68;;;;;;;28.15;41.92;100104.09;20992510;28;20052;-58
2023/06/12 20:10:25;;;;;;;16.05;14.35;;;;;;;28.14;42.06;100058.28;20990185;28;20047;-56
2023/06/12 20:20:28;;;;;;;14.73;13.13;;;;;;;28.12;42.01;100038.13;20990832;28;20047;-57
2023/06/12 20:30:29;;;;;;;15.10;13.20;;;;;;;28.15;42.05;100040.22;20991100;28;20102;-55
2023/06/12 20:40:31;;;;;;;15.50;13.73;;;;;;;28.05;42.13;100029.47;20990390;28;20037;-57
2023/06/12 20:50:32;;;;;;;15.02;13.25;;;;;;;28.15;41.84;100051.47;20989252;28;20056;-57
2023/06/12 21:00:33;;;;;;;14.68;12.65;;;;;;;28.12;42.15;100080.31;20994015;28;20082;-58
2023/06/12 21:10:35;;;;;;;14.93;13.30;;;;;;;28.10;42.32;100099.53;21004184;28;20102;-57
2023/06/12 21:20:36;;;;;;;16.55;12.48;;;;;;;28.14;42.19;100089.22;21004130;28;20094;-58
2023/06/12 21:30:41;;;;;;;14.02;12.48;;;;;;;28.14;42.35;100077.97;21002139;28;20045;-57
2023/06/12 21:40:42;;;;;;;14.95;11.80;;;;;;;28.15;42.53;100026.16;21000612;28;20036;-59
2023/06/12 21:50:43;;;;;;;15.55;12.50;;;;;;;28.15;42.40;100017.72;21001865;28;20106;-58
2023/06/12 22:00:45;;;;;;;14.57;11.68;;;;;;;28.13;42.33;100025.69;21001107;28;20036;-59
2023/06/12 22:10:46;;;;;;;12.95;11.65;;;;;;;28.14;42.86;100027.34;20999703;28;20045;-60
2023/06/12 22:20:48;;;;;;;14.30;11.38;;;;;;;28.15;42.72;100028.16;21000312;28;20025;-58
2023/06/12 22:30:50;;;;;;;12.68;11.45;;;;;;;28.16;42.52;100030.63;20999248;28;20480;-59
2023/06/12 22:40:52;;;;;;;13.75;11.02;;;;;;;28.16;42.71;100019.38;20997589;28;20086;-58
2023/06/12 22:50:53;;;;;;;12.90;11.50;;;;;;;28.14;42.85;100013.28;20996993;28;20045;-59
2023/06/12 23:01:01;;;;;;;12.80;10.90;;;;;;;28.14;42.68;100032.97;20996765;28;20037;-59
2023/06/12 23:11:02;;;;;;;11.75;10.55;;;;;;;28.16;42.60;100046.69;20995235;28;20094;-58
2023/06/12 23:21:04;;;;;;;12.32;11.05;;;;;;;28.11;42.55;100050.53;20995060;28;20041;-59
2023/06/12 23:31:08;;;;;;;11.27;9.82;;;;;;;28.15;42.63;100057.09;20994916;28;20036;-60
2023/06/12 23:41:10;;;;;;;12.10;10.80;;;;;;;28.16;42.49;100069.19;20993780;28;20659;-59
2023/06/12 23:51:11;;;;;;;11.40;10.20;;;;;;;28.16;42.74;100084.06;20992532;28;20044;-59
